sensor_id;sensor_type;location;lat;lon;timestamp;P1;durP1;ratioP1;P2;durP2;ratioP2
51995;SDS011;38010;53.264;6.592;2023-05-14T00:00:21;2.17;;;1.75;;
51995;SDS011;38010;53.264;6.592;2023-05-14T00:02:47;2.03;;;1.38;;
51995;SDS011;38010;53.264;6.592;2023-05-14T00:05:13;1.60;;;1.35;;
51995;SDS011;38010;53.264;6.592;2023-05-14T00:07:39;2.45;;;1.42;;
51995;SDS011;38010;53.264;6.592;2023-05-14T00:10:05;1.95;;;1.45;;
51995;SDS011;38010;53.264;6.592;2023-05-14T00:12:31;1.63;;;1.45;;
51995;SDS011;38010;53.264;6.592;2023-05-14T00:14:57;1.90;;;1.40;;
51995;SDS011;38010;53.264;6.592;2023-05-14T00:17:22;1.58;;;1.20;;
51995;SDS011;38010;53.264;6.592;2023-05-14T00:19:48;2.35;;;1.55;;
51995;SDS011;38010;53.264;6.592;2023-05-14T00:22:14;1.10;;;1.00;;
51995;SDS011;38010;53.264;6.592;2023-05-14T00:24:39;1.20;;;1.10;;
51995;SDS011;38010;53.264;6.592;2023-05-14T00:27:05;1.40;;;1.30;;
51995;SDS011;38010;53.264;6.592;2023-05-14T00:29:31;2.92;;;1.42;;
51995;SDS011;38010;53.264;6.592;2023-05-14T00:31:57;1.42;;;1.20;;
51995;SDS011;38010;53.264;6.592;2023-05-14T00:34:23;1.92;;;1.20;;
51995;SDS011;38010;53.264;6.592;2023-05-14T00:36:49;1.90;;;1.70;;
51995;SDS011;38010;53.264;6.592;2023-05-14T00:39:15;1.98;;;1.35;;
51995;SDS011;38010;53.264;6.592;2023-05-14T00:41:41;1.50;;;1.38;;
51995;SDS011;38010;53.264;6.592;2023-05-14T00:44:06;1.38;;;1.20;;
51995;SDS011;38010;53.264;6.592;2023-05-14T00:46:32;2.08;;;1.30;;
51995;SDS011;38010;53.264;6.592;2023-05-14T00:48:58;1.60;;;1.30;;
51995;SDS011;38010;53.264;6.592;2023-05-14T00:51:24;1.20;;;1.00;;
51995;SDS011;38010;53.264;6.592;2023-05-14T00:53:50;1.85;;;1.45;;
51995;SDS011;38010;53.264;6.592;2023-05-14T00:56:17;1.20;;;1.10;;
51995;SDS011;38010;53.264;6.592;2023-05-14T00:58:43;1.50;;;1.05;;
51995;SDS011;38010;53.264;6.592;2023-05-14T01:01:09;1.08;;;1.00;;
51995;SDS011;38010;53.264;6.592;2023-05-14T01:03:36;1.60;;;1.10;;
51995;SDS011;38010;53.264;6.592;2023-05-14T01:14:04;2.10;;;1.33;;
51995;SDS011;38010;53.264;6.592;2023-05-14T01:16:36;1.55;;;1.08;;
51995;SDS011;38010;53.264;6.592;2023-05-14T01:19:04;1.10;;;1.00;;
51995;SDS011;38010;53.264;6.592;2023-05-14T01:21:47;2.85;;;1.20;;
51995;SDS011;38010;53.264;6.592;2023-05-14T01:24:13;1.00;;;0.90;;
51995;SDS011;38010;53.264;6.592;2023-05-14T01:26:38;1.17;;;0.90;;
51995;SDS011;38010;53.264;6.592;2023-05-14T01:31:53;1.33;;;1.10;;
51995;SDS011;38010;53.264;6.592;2023-05-14T01:34:21;1.13;;;1.02;;
51995;SDS011;38010;53.264;6.592;2023-05-14T01:36:49;1.27;;;1.13;;
51995;SDS011;38010;53.264;6.592;2023-05-14T01:39:16;1.27;;;1.17;;
51995;SDS011;38010;53.264;6.592;2023-05-14T01:41:43;1.10;;;0.82;;
51995;SDS011;38010;53.264;6.592;2023-05-14T01:44:10;1.10;;;1.00;;
51995;SDS011;38010;53.264;6.592;2023-05-14T01:46:36;1.23;;;1.00;;
51995;SDS011;38010;53.264;6.592;2023-05-14T01:49:02;2.20;;;1.10;;
51995;SDS011;38010;53.264;6.592;2023-05-14T01:51:28;1.40;;;0.90;;
51995;SDS011;38010;53.264;6.592;2023-05-14T01:53:54;1.42;;;1.00;;
51995;SDS011;38010;53.264;6.592;2023-05-14T01:56:20;1.02;;;0.90;;
51995;SDS011;38010;53.264;6.592;2023-05-14T01:58:47;2.28;;;1.10;;
51995;SDS011;38010;53.264;6.592;2023-05-14T02:01:13;1.35;;;1.00;;
51995;SDS011;38010;53.264;6.592;2023-05-14T02:03:39;1.00;;;0.90;;
51995;SDS011;38010;53.264;6.592;2023-05-14T02:06:05;1.73;;;1.27;;
51995;SDS011;38010;53.264;6.592;2023-05-14T02:08:31;0.88;;;0.85;;
51995;SDS011;38010;53.264;6.592;2023-05-14T02:10:56;1.45;;;1.00;;
51995;SDS011;38010;53.264;6.592;2023-05-14T02:13:23;1.13;;;1.00;;
51995;SDS011;38010;53.264;6.592;2023-05-14T02:15:50;1.17;;;1.02;;
51995;SDS011;38010;53.264;6.592;2023-05-14T02:18:15;0.90;;;0.80;;
51995;SDS011;38010;53.264;6.592;2023-05-14T02:20:41;1.10;;;0.82;;
51995;SDS011;38010;53.264;6.592;2023-05-14T02:23:07;1.40;;;1.00;;
51995;SDS011;38010;53.264;6.592;2023-05-14T02:25:32;1.15;;;1.00;;
51995;SDS011;38010;53.264;6.592;2023-05-14T02:27:58;1.23;;;1.00;;
51995;SDS011;38010;53.264;6.592;2023-05-14T02:30:24;1.40;;;0.93;;
51995;SDS011;38010;53.264;6.592;2023-05-14T02:32:49;1.30;;;0.88;;
51995;SDS011;38010;53.264;6.592;2023-05-14T02:35:15;1.75;;;1.00;;
51995;SDS011;38010;53.264;6.592;2023-05-14T02:37:41;1.50;;;1.08;;
51995;SDS011;38010;53.264;6.592;2023-05-14T02:40:07;1.15;;;0.88;;
51995;SDS011;38010;53.264;6.592;2023-05-14T02:42:33;1.35;;;1.05;;
51995;SDS011;38010;53.264;6.592;2023-05-14T02:44:59;0.90;;;0.75;;
51995;SDS011;38010;53.264;6.592;2023-05-14T02:47:25;0.85;;;0.82;;
51995;SDS011;38010;53.264;6.592;2023-05-14T02:49:50;2.15;;;1.08;;
51995;SDS011;38010;53.264;6.592;2023-05-14T02:52:16;2.13;;;1.10;;
51995;SDS011;38010;53.264;6.592;2023-05-14T02:54:42;1.35;;;1.00;;
51995;SDS011;38010;53.264;6.592;2023-05-14T02:57:07;1.58;;;1.30;;
51995;SDS011;38010;53.264;6.592;2023-05-14T02:59:33;1.30;;;1.15;;
51995;SDS011;38010;53.264;6.592;2023-05-14T03:01:59;1.20;;;0.95;;
51995;SDS011;38010;53.264;6.592;2023-05-14T03:04:24;1.10;;;1.00;;
51995;SDS011;38010;53.264;6.592;2023-05-14T03:06:50;1.95;;;1.23;;
51995;SDS011;38010;53.264;6.592;2023-05-14T03:09:16;2.55;;;1.10;;
51995;SDS011;38010;53.264;6.592;2023-05-14T03:11:41;1.77;;;1.30;;
51995;SDS011;38010;53.264;6.592;2023-05-14T03:14:07;1.80;;;1.05;;
51995;SDS011;38010;53.264;6.592;2023-05-14T03:16:33;2.08;;;1.60;;
51995;SDS011;38010;53.264;6.592;2023-05-14T03:18:58;2.25;;;1.20;;
51995;SDS011;38010;53.264;6.592;2023-05-14T03:21:24;1.33;;;1.02;;
51995;SDS011;38010;53.264;6.592;2023-05-14T03:23:51;3.00;;;1.20;;
51995;SDS011;38010;53.264;6.592;2023-05-14T03:26:17;1.35;;;1.02;;
51995;SDS011;38010;53.264;6.592;2023-05-14T03:28:43;1.33;;;1.05;;
51995;SDS011;38010;53.264;6.592;2023-05-14T03:31:08;1.48;;;1.27;;
51995;SDS011;38010;53.264;6.592;2023-05-14T03:33:34;1.30;;;1.20;;
51995;SDS011;38010;53.264;6.592;2023-05-14T03:36:00;1.58;;;1.00;;
51995;SDS011;38010;53.264;6.592;2023-05-14T03:38:26;1.60;;;1.10;;
51995;SDS011;38010;53.264;6.592;2023-05-14T03:40:51;3.10;;;1.33;;
51995;SDS011;38010;53.264;6.592;2023-05-14T03:43:17;1.50;;;1.20;;
51995;SDS011;38010;53.264;6.592;2023-05-14T03:45:43;1.60;;;1.23;;
51995;SDS011;38010;53.264;6.592;2023-05-14T03:48:08;2.38;;;1.20;;
51995;SDS011;38010;53.264;6.592;2023-05-14T03:50:34;1.48;;;1.08;;
51995;SDS011;38010;53.264;6.592;2023-05-14T03:53:00;1.95;;;1.25;;
51995;SDS011;38010;53.264;6.592;2023-05-14T03:55:26;1.42;;;1.25;;
51995;SDS011;38010;53.264;6.592;2023-05-14T03:57:51;1.73;;;1.15;;
51995;SDS011;38010;53.264;6.592;2023-05-14T04:00:17;1.67;;;1.10;;
51995;SDS011;38010;53.264;6.592;2023-05-14T04:02:43;1.42;;;1.02;;
51995;SDS011;38010;53.264;6.592;2023-05-14T04:05:09;1.55;;;0.98;;
51995;SDS011;38010;53.264;6.592;2023-05-14T04:07:34;1.52;;;1.08;;
51995;SDS011;38010;53.264;6.592;2023-05-14T04:10:01;2.20;;;1.10;;
51995;SDS011;38010;53.264;6.592;2023-05-14T04:12:27;1.73;;;1.15;;
51995;SDS011;38010;53.264;6.592;2023-05-14T04:14:53;2.05;;;1.00;;
51995;SDS011;38010;53.264;6.592;2023-05-14T04:17:19;1.08;;;0.82;;
51995;SDS011;38010;53.264;6.592;2023-05-14T04:19:44;1.83;;;1.15;;
51995;SDS011;38010;53.264;6.592;2023-05-14T04:22:10;2.17;;;1.33;;
51995;SDS011;38010;53.264;6.592;2023-05-14T04:24:36;1.15;;;1.00;;
51995;SDS011;38010;53.264;6.592;2023-05-14T04:27:01;1.05;;;0.85;;
51995;SDS011;38010;53.264;6.592;2023-05-14T04:29:27;1.95;;;0.90;;
51995;SDS011;38010;53.264;6.592;2023-05-14T04:31:53;1.60;;;1.17;;
51995;SDS011;38010;53.264;6.592;2023-05-14T04:34:19;1.17;;;0.80;;
51995;SDS011;38010;53.264;6.592;2023-05-14T04:36:45;1.60;;;0.98;;
51995;SDS011;38010;53.264;6.592;2023-05-14T04:39:11;1.90;;;1.08;;
51995;SDS011;38010;53.264;6.592;2023-05-14T04:41:37;1.23;;;0.90;;
51995;SDS011;38010;53.264;6.592;2023-05-14T04:44:03;0.88;;;0.80;;
51995;SDS011;38010;53.264;6.592;2023-05-14T04:46:29;1.80;;;1.20;;
51995;SDS011;38010;53.264;6.592;2023-05-14T04:48:55;2.35;;;1.00;;
51995;SDS011;38010;53.264;6.592;2023-05-14T04:51:21;1.00;;;0.80;;
51995;SDS011;38010;53.264;6.592;2023-05-14T04:53:47;1.25;;;0.80;;
51995;SDS011;38010;53.264;6.592;2023-05-14T04:56:13;0.93;;;0.77;;
51995;SDS011;38010;53.264;6.592;2023-05-14T04:58:38;2.38;;;1.23;;
51995;SDS011;38010;53.264;6.592;2023-05-14T05:01:04;1.95;;;0.80;;
51995;SDS011;38010;53.264;6.592;2023-05-14T05:03:30;1.10;;;0.60;;
51995;SDS011;38010;53.264;6.592;2023-05-14T05:05:56;0.90;;;0.70;;
51995;SDS011;38010;53.264;6.592;2023-05-14T05:08:22;1.65;;;0.90;;
51995;SDS011;38010;53.264;6.592;2023-05-14T05:10:48;1.52;;;0.88;;
51995;SDS011;38010;53.264;6.592;2023-05-14T05:13:13;1.40;;;0.88;;
51995;SDS011;38010;53.264;6.592;2023-05-14T05:15:41;0.90;;;0.70;;
51995;SDS011;38010;53.264;6.592;2023-05-14T05:18:07;1.63;;;1.00;;
51995;SDS011;38010;53.264;6.592;2023-05-14T05:20:33;1.00;;;0.90;;
51995;SDS011;38010;53.264;6.592;2023-05-14T05:22:58;1.33;;;0.90;;
51995;SDS011;38010;53.264;6.592;2023-05-14T05:25:24;1.55;;;1.00;;
51995;SDS011;38010;53.264;6.592;2023-05-14T05:27:50;1.63;;;1.00;;
51995;SDS011;38010;53.264;6.592;2023-05-14T05:30:15;1.13;;;0.80;;
51995;SDS011;38010;53.264;6.592;2023-05-14T05:32:41;2.15;;;1.00;;
51995;SDS011;38010;53.264;6.592;2023-05-14T05:35:07;1.23;;;0.80;;
51995;SDS011;38010;53.264;6.592;2023-05-14T05:37:33;1.73;;;0.90;;
51995;SDS011;38010;53.264;6.592;2023-05-14T05:39:59;1.70;;;0.93;;
51995;SDS011;38010;53.264;6.592;2023-05-14T05:42:24;1.92;;;1.05;;
51995;SDS011;38010;53.264;6.592;2023-05-14T05:44:50;1.33;;;0.68;;
51995;SDS011;38010;53.264;6.592;2023-05-14T05:47:16;2.00;;;0.95;;
51995;SDS011;38010;53.264;6.592;2023-05-14T05:49:41;1.27;;;0.70;;
51995;SDS011;38010;53.264;6.592;2023-05-14T05:52:07;1.30;;;0.95;;
51995;SDS011;38010;53.264;6.592;2023-05-14T05:54:33;1.25;;;0.98;;
51995;SDS011;38010;53.264;6.592;2023-05-14T05:56:59;1.33;;;0.90;;
51995;SDS011;38010;53.264;6.592;2023-05-14T05:59:25;1.98;;;1.02;;
51995;SDS011;38010;53.264;6.592;2023-05-14T06:01:51;1.95;;;0.90;;
51995;SDS011;38010;53.264;6.592;2023-05-14T06:04:16;1.92;;;1.00;;
51995;SDS011;38010;53.264;6.592;2023-05-14T06:06:42;1.38;;;0.90;;
51995;SDS011;38010;53.264;6.592;2023-05-14T06:09:08;1.10;;;0.70;;
51995;SDS011;38010;53.264;6.592;2023-05-14T06:11:34;1.58;;;1.00;;
51995;SDS011;38010;53.264;6.592;2023-05-14T06:14:00;1.85;;;1.00;;
51995;SDS011;38010;53.264;6.592;2023-05-14T06:16:27;2.85;;;1.23;;
51995;SDS011;38010;53.264;6.592;2023-05-14T06:18:53;2.22;;;1.20;;
51995;SDS011;38010;53.264;6.592;2023-05-14T06:21:19;2.92;;;1.35;;
51995;SDS011;38010;53.264;6.592;2023-05-14T06:23:45;2.05;;;1.10;;
51995;SDS011;38010;53.264;6.592;2023-05-14T06:26:11;4.35;;;1.40;;
51995;SDS011;38010;53.264;6.592;2023-05-14T06:28:37;3.53;;;1.40;;
51995;SDS011;38010;53.264;6.592;2023-05-14T06:31:03;4.35;;;1.15;;
51995;SDS011;38010;53.264;6.592;2023-05-14T06:33:28;1.55;;;1.20;;
51995;SDS011;38010;53.264;6.592;2023-05-14T06:36:02;1.90;;;1.25;;
51995;SDS011;38010;53.264;6.592;2023-05-14T06:38:29;1.88;;;1.10;;
51995;SDS011;38010;53.264;6.592;2023-05-14T06:40:55;3.53;;;1.60;;
51995;SDS011;38010;53.264;6.592;2023-05-14T06:43:21;2.83;;;1.92;;
51995;SDS011;38010;53.264;6.592;2023-05-14T06:45:47;3.13;;;1.30;;
51995;SDS011;38010;53.264;6.592;2023-05-14T06:48:13;2.15;;;1.40;;
51995;SDS011;38010;53.264;6.592;2023-05-14T06:50:39;1.83;;;1.48;;
51995;SDS011;38010;53.264;6.592;2023-05-14T06:53:05;2.40;;;1.63;;
51995;SDS011;38010;53.264;6.592;2023-05-14T06:55:31;2.25;;;1.40;;
51995;SDS011;38010;53.264;6.592;2023-05-14T06:57:56;3.83;;;1.52;;
51995;SDS011;38010;53.264;6.592;2023-05-14T07:00:22;2.45;;;1.45;;
51995;SDS011;38010;53.264;6.592;2023-05-14T07:02:48;2.85;;;1.45;;
51995;SDS011;38010;53.264;6.592;2023-05-14T07:05:13;2.20;;;1.35;;
51995;SDS011;38010;53.264;6.592;2023-05-14T07:07:39;2.40;;;1.30;;
51995;SDS011;38010;53.264;6.592;2023-05-14T07:10:05;1.63;;;1.20;;
51995;SDS011;38010;53.264;6.592;2023-05-14T07:12:32;2.35;;;1.20;;
51995;SDS011;38010;53.264;6.592;2023-05-14T07:14:58;2.60;;;1.33;;
51995;SDS011;38010;53.264;6.592;2023-05-14T07:17:23;2.40;;;1.33;;
51995;SDS011;38010;53.264;6.592;2023-05-14T07:19:49;1.80;;;1.23;;
51995;SDS011;38010;53.264;6.592;2023-05-14T07:22:15;3.03;;;1.50;;
51995;SDS011;38010;53.264;6.592;2023-05-14T07:24:41;2.42;;;1.30;;
51995;SDS011;38010;53.264;6.592;2023-05-14T07:27:06;3.38;;;1.45;;
51995;SDS011;38010;53.264;6.592;2023-05-14T07:29:33;2.17;;;1.10;;
51995;SDS011;38010;53.264;6.592;2023-05-14T07:31:59;2.35;;;1.38;;
51995;SDS011;38010;53.264;6.592;2023-05-14T07:34:26;2.30;;;1.35;;
51995;SDS011;38010;53.264;6.592;2023-05-14T07:36:51;4.13;;;1.52;;
51995;SDS011;38010;53.264;6.592;2023-05-14T07:39:17;2.03;;;1.58;;
51995;SDS011;38010;53.264;6.592;2023-05-14T07:41:43;2.30;;;1.15;;
51995;SDS011;38010;53.264;6.592;2023-05-14T07:44:08;2.53;;;1.17;;
51995;SDS011;38010;53.264;6.592;2023-05-14T07:46:35;1.85;;;1.10;;
51995;SDS011;38010;53.264;6.592;2023-05-14T07:49:01;3.85;;;1.50;;
51995;SDS011;38010;53.264;6.592;2023-05-14T07:51:27;2.35;;;1.25;;
51995;SDS011;38010;53.264;6.592;2023-05-14T07:53:53;3.58;;;1.13;;
51995;SDS011;38010;53.264;6.592;2023-05-14T07:56:20;2.85;;;1.17;;
51995;SDS011;38010;53.264;6.592;2023-05-14T07:58:46;1.83;;;1.05;;
51995;SDS011;38010;53.264;6.592;2023-05-14T08:01:12;2.08;;;1.10;;
51995;SDS011;38010;53.264;6.592;2023-05-14T08:03:38;2.92;;;1.23;;
51995;SDS011;38010;53.264;6.592;2023-05-14T08:06:04;3.28;;;1.20;;
51995;SDS011;38010;53.264;6.592;2023-05-14T08:08:30;2.58;;;1.65;;
51995;SDS011;38010;53.264;6.592;2023-05-14T08:10:56;2.58;;;1.25;;
51995;SDS011;38010;53.264;6.592;2023-05-14T08:13:21;1.92;;;0.90;;
51995;SDS011;38010;53.264;6.592;2023-05-14T08:15:47;2.42;;;1.20;;
51995;SDS011;38010;53.264;6.592;2023-05-14T08:18:13;1.48;;;1.08;;
51995;SDS011;38010;53.264;6.592;2023-05-14T08:20:39;2.85;;;1.30;;
51995;SDS011;38010;53.264;6.592;2023-05-14T08:23:05;5.20;;;1.17;;
51995;SDS011;38010;53.264;6.592;2023-05-14T08:25:31;6.65;;;1.48;;
51995;SDS011;38010;53.264;6.592;2023-05-14T08:27:57;1.88;;;1.25;;
51995;SDS011;38010;53.264;6.592;2023-05-14T08:30:24;3.75;;;1.80;;
51995;SDS011;38010;53.264;6.592;2023-05-14T08:32:49;3.42;;;1.70;;
51995;SDS011;38010;53.264;6.592;2023-05-14T08:35:18;1.95;;;1.40;;
51995;SDS011;38010;53.264;6.592;2023-05-14T08:37:44;2.70;;;1.40;;
51995;SDS011;38010;53.264;6.592;2023-05-14T08:40:10;2.88;;;1.52;;
51995;SDS011;38010;53.264;6.592;2023-05-14T08:42:37;3.10;;;1.55;;
51995;SDS011;38010;53.264;6.592;2023-05-14T08:45:12;2.75;;;1.40;;
51995;SDS011;38010;53.264;6.592;2023-05-14T08:47:49;2.30;;;1.30;;
51995;SDS011;38010;53.264;6.592;2023-05-14T08:50:15;2.20;;;1.42;;
51995;SDS011;38010;53.264;6.592;2023-05-14T08:52:42;4.53;;;1.58;;
51995;SDS011;38010;53.264;6.592;2023-05-14T08:55:08;2.88;;;1.40;;
51995;SDS011;38010;53.264;6.592;2023-05-14T08:57:36;3.78;;;1.30;;
51995;SDS011;38010;53.264;6.592;2023-05-14T09:00:03;1.55;;;1.33;;
51995;SDS011;38010;53.264;6.592;2023-05-14T09:02:32;2.65;;;1.48;;
51995;SDS011;38010;53.264;6.592;2023-05-14T09:05:00;1.98;;;1.60;;
51995;SDS011;38010;53.264;6.592;2023-05-14T09:07:26;1.80;;;1.00;;
51995;SDS011;38010;53.264;6.592;2023-05-14T09:09:52;2.05;;;1.20;;
51995;SDS011;38010;53.264;6.592;2023-05-14T09:12:19;2.15;;;1.10;;
51995;SDS011;38010;53.264;6.592;2023-05-14T09:14:46;2.55;;;1.33;;
51995;SDS011;38010;53.264;6.592;2023-05-14T09:17:12;2.60;;;1.20;;
51995;SDS011;38010;53.264;6.592;2023-05-14T09:19:42;1.70;;;1.25;;
51995;SDS011;38010;53.264;6.592;2023-05-14T09:22:13;2.28;;;1.17;;
51995;SDS011;38010;53.264;6.592;2023-05-14T09:24:40;2.28;;;1.35;;
51995;SDS011;38010;53.264;6.592;2023-05-14T09:27:06;2.38;;;1.33;;
51995;SDS011;38010;53.264;6.592;2023-05-14T09:29:33;2.17;;;1.50;;
51995;SDS011;38010;53.264;6.592;2023-05-14T09:31:59;4.60;;;1.27;;
51995;SDS011;38010;53.264;6.592;2023-05-14T09:34:32;2.70;;;1.30;;
51995;SDS011;38010;53.264;6.592;2023-05-14T09:36:59;1.75;;;1.15;;
51995;SDS011;38010;53.264;6.592;2023-05-14T09:39:30;2.22;;;1.20;;
51995;SDS011;38010;53.264;6.592;2023-05-14T09:41:57;1.98;;;1.30;;
51995;SDS011;38010;53.264;6.592;2023-05-14T09:44:23;2.38;;;1.40;;
51995;SDS011;38010;53.264;6.592;2023-05-14T09:46:49;2.35;;;1.10;;
51995;SDS011;38010;53.264;6.592;2023-05-14T09:49:16;1.92;;;1.10;;
51995;SDS011;38010;53.264;6.592;2023-05-14T09:51:43;2.20;;;1.50;;
51995;SDS011;38010;53.264;6.592;2023-05-14T09:54:08;1.98;;;1.45;;
51995;SDS011;38010;53.264;6.592;2023-05-14T09:56:35;2.50;;;1.70;;
51995;SDS011;38010;53.264;6.592;2023-05-14T09:59:01;1.70;;;1.25;;
51995;SDS011;38010;53.264;6.592;2023-05-14T10:01:29;2.80;;;1.13;;
51995;SDS011;38010;53.264;6.592;2023-05-14T10:03:55;1.85;;;1.45;;
51995;SDS011;38010;53.264;6.592;2023-05-14T10:06:22;1.35;;;1.20;;
51995;SDS011;38010;53.264;6.592;2023-05-14T10:08:52;2.47;;;1.27;;
51995;SDS011;38010;53.264;6.592;2023-05-14T10:11:21;2.10;;;1.20;;
51995;SDS011;38010;53.264;6.592;2023-05-14T10:14:25;2.67;;;1.40;;
51995;SDS011;38010;53.264;6.592;2023-05-14T10:16:50;1.90;;;1.40;;
51995;SDS011;38010;53.264;6.592;2023-05-14T10:21:46;1.45;;;1.15;;
51995;SDS011;38010;53.264;6.592;2023-05-14T10:24:13;1.90;;;1.52;;
51995;SDS011;38010;53.264;6.592;2023-05-14T10:26:40;1.75;;;1.60;;
51995;SDS011;38010;53.264;6.592;2023-05-14T10:29:08;2.10;;;1.45;;
51995;SDS011;38010;53.264;6.592;2023-05-14T10:31:50;2.88;;;1.38;;
51995;SDS011;38010;53.264;6.592;2023-05-14T10:37:17;1.40;;;1.30;;
51995;SDS011;38010;53.264;6.592;2023-05-14T10:39:46;1.85;;;1.35;;
51995;SDS011;38010;53.264;6.592;2023-05-14T10:42:18;2.08;;;1.23;;
51995;SDS011;38010;53.264;6.592;2023-05-14T10:47:22;1.42;;;1.13;;
51995;SDS011;38010;53.264;6.592;2023-05-14T10:49:51;1.40;;;1.08;;
51995;SDS011;38010;53.264;6.592;2023-05-14T10:52:19;2.67;;;1.42;;
51995;SDS011;38010;53.264;6.592;2023-05-14T10:54:55;1.65;;;1.30;;
51995;SDS011;38010;53.264;6.592;2023-05-14T10:57:23;1.70;;;1.30;;
51995;SDS011;38010;53.264;6.592;2023-05-14T10:59:54;2.65;;;1.40;;
51995;SDS011;38010;53.264;6.592;2023-05-14T11:02:28;1.63;;;1.10;;
51995;SDS011;38010;53.264;6.592;2023-05-14T11:05:02;1.70;;;1.42;;
51995;SDS011;38010;53.264;6.592;2023-05-14T11:07:32;2.17;;;1.52;;
51995;SDS011;38010;53.264;6.592;2023-05-14T11:10:03;2.08;;;1.42;;
51995;SDS011;38010;53.264;6.592;2023-05-14T11:12:32;1.92;;;1.35;;
51995;SDS011;38010;53.264;6.592;2023-05-14T11:15:00;1.88;;;1.40;;
51995;SDS011;38010;53.264;6.592;2023-05-14T11:17:28;2.80;;;1.27;;
51995;SDS011;38010;53.264;6.592;2023-05-14T11:19:55;1.65;;;1.42;;
51995;SDS011;38010;53.264;6.592;2023-05-14T11:22:21;1.90;;;1.35;;
51995;SDS011;38010;53.264;6.592;2023-05-14T11:24:48;2.85;;;1.42;;
51995;SDS011;38010;53.264;6.592;2023-05-14T11:27:14;1.50;;;1.27;;
51995;SDS011;38010;53.264;6.592;2023-05-14T11:29:42;2.28;;;1.42;;
51995;SDS011;38010;53.264;6.592;2023-05-14T11:32:12;2.25;;;1.75;;
51995;SDS011;38010;53.264;6.592;2023-05-14T11:34:39;2.08;;;1.63;;
51995;SDS011;38010;53.264;6.592;2023-05-14T11:37:06;2.00;;;1.50;;
51995;SDS011;38010;53.264;6.592;2023-05-14T11:39:33;1.48;;;1.38;;
51995;SDS011;38010;53.264;6.592;2023-05-14T11:42:02;1.80;;;1.45;;
51995;SDS011;38010;53.264;6.592;2023-05-14T11:44:29;2.38;;;1.67;;
51995;SDS011;38010;53.264;6.592;2023-05-14T11:46:56;1.15;;;1.05;;
51995;SDS011;38010;53.264;6.592;2023-05-14T11:49:23;1.20;;;1.10;;
51995;SDS011;38010;53.264;6.592;2023-05-14T11:51:49;2.10;;;1.27;;
51995;SDS011;38010;53.264;6.592;2023-05-14T11:54:21;2.17;;;1.60;;
51995;SDS011;38010;53.264;6.592;2023-05-14T11:56:49;1.30;;;1.20;;
51995;SDS011;38010;53.264;6.592;2023-05-14T11:59:15;2.78;;;1.30;;
51995;SDS011;38010;53.264;6.592;2023-05-14T12:01:43;2.35;;;1.20;;
51995;SDS011;38010;53.264;6.592;2023-05-14T12:04:11;1.60;;;1.40;;
51995;SDS011;38010;53.264;6.592;2023-05-14T12:06:42;1.40;;;1.20;;
51995;SDS011;38010;53.264;6.592;2023-05-14T12:09:11;1.83;;;1.30;;
51995;SDS011;38010;53.264;6.592;2023-05-14T12:11:36;1.55;;;1.27;;
51995;SDS011;38010;53.264;6.592;2023-05-14T12:14:09;1.67;;;1.30;;
51995;SDS011;38010;53.264;6.592;2023-05-14T12:16:44;2.85;;;1.80;;
51995;SDS011;38010;53.264;6.592;2023-05-14T12:19:12;1.30;;;1.20;;
51995;SDS011;38010;53.264;6.592;2023-05-14T12:21:39;2.08;;;1.17;;
51995;SDS011;38010;53.264;6.592;2023-05-14T12:24:08;1.90;;;1.17;;
51995;SDS011;38010;53.264;6.592;2023-05-14T12:26:38;1.40;;;1.08;;
51995;SDS011;38010;53.264;6.592;2023-05-14T12:29:11;2.33;;;1.55;;
51995;SDS011;38010;53.264;6.592;2023-05-14T12:31:37;1.58;;;1.40;;
51995;SDS011;38010;53.264;6.592;2023-05-14T12:34:13;1.77;;;1.10;;
51995;SDS011;38010;53.264;6.592;2023-05-14T12:36:39;1.67;;;1.50;;
51995;SDS011;38010;53.264;6.592;2023-05-14T12:39:06;1.42;;;1.10;;
51995;SDS011;38010;53.264;6.592;2023-05-14T12:41:32;1.58;;;1.20;;
51995;SDS011;38010;53.264;6.592;2023-05-14T12:43:58;1.20;;;1.10;;
51995;SDS011;38010;53.264;6.592;2023-05-14T12:46:24;1.83;;;1.20;;
51995;SDS011;38010;53.264;6.592;2023-05-14T12:48:54;1.88;;;1.10;;
51995;SDS011;38010;53.264;6.592;2023-05-14T12:51:20;1.35;;;1.25;;
51995;SDS011;38010;53.264;6.592;2023-05-14T12:53:46;1.40;;;1.30;;
51995;SDS011;38010;53.264;6.592;2023-05-14T12:56:12;1.60;;;1.30;;
51995;SDS011;38010;53.264;6.592;2023-05-14T12:58:38;1.60;;;0.88;;
51995;SDS011;38010;53.264;6.592;2023-05-14T13:01:04;1.58;;;1.20;;
51995;SDS011;38010;53.264;6.592;2023-05-14T13:03:30;1.88;;;1.23;;
51995;SDS011;38010;53.264;6.592;2023-05-14T13:05:55;1.20;;;1.05;;
51995;SDS011;38010;53.264;6.592;2023-05-14T13:08:21;1.75;;;1.30;;
51995;SDS011;38010;53.264;6.592;2023-05-14T13:10:51;1.52;;;0.98;;
51995;SDS011;38010;53.264;6.592;2023-05-14T13:13:17;1.73;;;1.63;;
51995;SDS011;38010;53.264;6.592;2023-05-14T13:15:43;1.27;;;1.02;;
51995;SDS011;38010;53.264;6.592;2023-05-14T13:18:11;2.00;;;1.42;;
51995;SDS011;38010;53.264;6.592;2023-05-14T13:20:37;1.63;;;1.35;;
51995;SDS011;38010;53.264;6.592;2023-05-14T13:23:03;1.55;;;1.40;;
51995;SDS011;38010;53.264;6.592;2023-05-14T13:25:28;2.65;;;1.48;;
51995;SDS011;38010;53.264;6.592;2023-05-14T13:27:54;2.97;;;1.30;;
51995;SDS011;38010;53.264;6.592;2023-05-14T13:30:20;1.88;;;1.30;;
51995;SDS011;38010;53.264;6.592;2023-05-14T13:32:46;2.33;;;1.48;;
51995;SDS011;38010;53.264;6.592;2023-05-14T13:35:12;4.25;;;1.48;;
51995;SDS011;38010;53.264;6.592;2023-05-14T13:37:37;2.15;;;1.52;;
51995;SDS011;38010;53.264;6.592;2023-05-14T13:40:04;1.98;;;1.25;;
51995;SDS011;38010;53.264;6.592;2023-05-14T13:42:33;1.85;;;1.50;;
51995;SDS011;38010;53.264;6.592;2023-05-14T13:45:04;3.38;;;1.63;;
51995;SDS011;38010;53.264;6.592;2023-05-14T13:47:30;4.25;;;1.83;;
51995;SDS011;38010;53.264;6.592;2023-05-14T13:49:56;4.10;;;1.70;;
51995;SDS011;38010;53.264;6.592;2023-05-14T13:52:22;2.33;;;1.50;;
51995;SDS011;38010;53.264;6.592;2023-05-14T13:54:48;1.95;;;1.75;;
51995;SDS011;38010;53.264;6.592;2023-05-14T13:57:14;2.80;;;2.22;;
51995;SDS011;38010;53.264;6.592;2023-05-14T13:59:39;3.53;;;1.60;;
51995;SDS011;38010;53.264;6.592;2023-05-14T14:02:06;3.25;;;2.10;;
51995;SDS011;38010;53.264;6.592;2023-05-14T14:04:32;3.88;;;2.22;;
51995;SDS011;38010;53.264;6.592;2023-05-14T14:06:58;2.33;;;1.67;;
51995;SDS011;38010;53.264;6.592;2023-05-14T14:09:24;2.83;;;1.95;;
51995;SDS011;38010;53.264;6.592;2023-05-14T14:11:49;2.65;;;1.63;;
51995;SDS011;38010;53.264;6.592;2023-05-14T14:14:15;2.65;;;1.70;;
51995;SDS011;38010;53.264;6.592;2023-05-14T14:16:41;2.00;;;1.55;;
51995;SDS011;38010;53.264;6.592;2023-05-14T14:19:07;1.55;;;1.45;;
51995;SDS011;38010;53.264;6.592;2023-05-14T14:21:33;1.75;;;1.35;;
51995;SDS011;38010;53.264;6.592;2023-05-14T14:24:00;2.35;;;1.77;;
51995;SDS011;38010;53.264;6.592;2023-05-14T14:26:26;5.13;;;2.03;;
51995;SDS011;38010;53.264;6.592;2023-05-14T14:28:53;2.95;;;1.95;;
51995;SDS011;38010;53.264;6.592;2023-05-14T14:31:19;2.47;;;1.75;;
51995;SDS011;38010;53.264;6.592;2023-05-14T14:33:45;2.63;;;1.83;;
51995;SDS011;38010;53.264;6.592;2023-05-14T14:36:11;2.75;;;2.05;;
51995;SDS011;38010;53.264;6.592;2023-05-14T14:38:37;4.65;;;1.95;;
51995;SDS011;38010;53.264;6.592;2023-05-14T14:41:03;4.03;;;2.17;;
51995;SDS011;38010;53.264;6.592;2023-05-14T14:43:32;2.50;;;2.00;;
51995;SDS011;38010;53.264;6.592;2023-05-14T14:45:58;2.63;;;2.10;;
51995;SDS011;38010;53.264;6.592;2023-05-14T14:50:50;2.88;;;2.03;;
51995;SDS011;38010;53.264;6.592;2023-05-14T14:53:17;2.75;;;2.00;;
51995;SDS011;38010;53.264;6.592;2023-05-14T14:55:43;2.05;;;1.80;;
51995;SDS011;38010;53.264;6.592;2023-05-14T14:58:09;3.50;;;2.20;;
51995;SDS011;38010;53.264;6.592;2023-05-14T15:00:35;2.88;;;2.28;;
51995;SDS011;38010;53.264;6.592;2023-05-14T15:03:01;2.58;;;2.20;;
51995;SDS011;38010;53.264;6.592;2023-05-14T15:05:26;2.30;;;2.05;;